Airfield :
LOGIN :

Register | Disclaimer

   EN    FR    IT 

 










Legend :    VFR   Marginal VFR   IFR   Intensive IFR   Very Intensive IFR
Visi :
Ceiling :
>= 8 km
>= 3000ft
5 to 8 km
1000 to 3000 ft
1500m to 5 km
500 to 1000 ft
800 to 1500m
200 to 500 ft
< 800m
< 200 ft
Symbols :   Thunderstorms  Fog  Heavy snow  Heavy precipitations  Wind > 20 kt
SIGMETs :     Misc.  Thunderstorms  Icing  Turbulence  Mountain Waves  Volcanic Ashes







- Airport Elevation : 84 ft
- Download approach charts


LFBC - Cazaux

CURRENT METAR :
  • 171700Z AUTO 32009KT CAVOK 25/18 Q1019 NOSIG

EXPIRED METARs :
  • 171630Z AUTO 32008KT CAVOK 26/18 Q1019 NOSIG
  • 171600Z AUTO 31004KT 230V030 CAVOK 27/17 Q1019 NOSIG
  • 171530Z AUTO 32004KT 240V010 CAVOK 26/17 Q1019 NOSIG
  • 171500Z AUTO VRB05KT CAVOK 26/17 Q1020 NOSIG
  • 171430Z AUTO 34008KT 290V010 CAVOK 26/18 Q1020 NOSIG

TAF TAF LFBC
Valid from the 17 at 15:00 until the 18 at 15:00 UTC


171400Z 1715/1815 32006KT CAVOK
PROB40
TEMPO 1722/1805 0600 BCFG
BECMG 1805/1807 BKN015
TEMPO 1810/1815 5000 -RA
No reported NOTAMs for that airfield.



MET'MAP, your aeronautical weather chart ! - Copyright ORBIFLY December 2007 - Disclaimer

ORBIFLY MET'MAP TEAM :

Programming & Development : Alexandra Zaïnal
Concept & Development : Baudouin d'Aumeries
Co-Development & Prog : Marc-Olivier Méhu
Technical & hardware support : Manuel Goepfert

Contact : metmap@orbifly.com




SOURCES & CREDITS :

   NOAA